Virtuous Striker — C6XX6 — position and weather

sailwx.info

Track history (hours):
 
Tides and Currents Weather Stations Pressure Air Temp Water Temp Dewpoint Dewpoint Depression Visibility Wind Speed Wind Dir Waves Ship Positions

Virtuous Striker

Last reported at 2017-Dec-10 12:20 UTC. Time now 2017-Dec-13 22:34 UTC.
Position N 01°37' W 048°13'.

Length 190 m; draft 11.9 m.

Type: Cargo ship. MMSI: 311025100.

Date/timePositionNaut miles runAvg speedWind from/ knotsBaromVisibWave heightAir tempDewpointWater temp
2017-Dec-10 12:20N 01°37' W 048°13'613.6
2017-Dec-10 11:54N 01°33' W 048°10'513.6
2017-Dec-10 11:30N 01°28' W 048°07'713.6
2017-Dec-10 10:59N 01°22' W 048°03'1913.6
2017-Dec-10 09:34N 01°06' W 047°52'1713.3
2017-Dec-10 08:17N 00°49' W 047°52'5113.2
2017-Dec-10 04:27S 00°02' W 047°54'512.2
2017-Dec-10 04:00S 00°07' W 047°54'611.6
2017-Dec-10 03:30S 00°13' W 047°54'5 9.4
2017-Dec-10 03:00S 00°17' W 047°56'4 9.0
2017-Dec-10 02:30S 00°19' W 048°00'5 9.2
2017-Dec-10 02:00S 00°20' W 048°05'5 9.9
2017-Dec-10 01:27S 00°23' W 048°10'2711.9
2017-Dec-09 23:13S 00°44' W 048°26'313.2
2017-Dec-09 23:00S 00°46' W 048°27'612.5
2017-Dec-09 22:30S 00°52' W 048°29'611.4
2017-Dec-09 22:00S 00°57' W 048°26'612.1
2017-Dec-09 21:30S 01°03' W 048°29'31 1.1
2017-Dec-08 18:15S 01°30' W 048°44'0 0.0
2017-Dec-08 18:00S 01°30' W 048°44'0 0.0
2017-Dec-08 17:30S 01°30' W 048°44'0 0.0
2017-Dec-08 16:54S 01°30' W 048°44'0 0.0
2017-Dec-08 16:27S 01°30' W 048°44'0 0.0
2017-Dec-08 16:00S 01°30' W 048°44'0 0.0
2017-Dec-08 15:30S 01°30' W 048°44'0 0.0
2017-Dec-08 15:00S 01°30' W 048°44'0 0.0
2017-Dec-08 14:30S 01°30' W 048°44'0 0.0
2017-Dec-08 14:00S 01°30' W 048°44'0 0.0
2017-Dec-08 13:30S 01°30' W 048°44'0 0.0
2017-Dec-08 13:00S 01°30' W 048°44'0 0.0
2017-Dec-08 12:27S 01°30' W 048°44'0 0.0
2017-Dec-08 12:00S 01°30' W 048°44'0 0.0
2017-Dec-08 11:30S 01°30' W 048°44'0 0.0
2017-Dec-08 11:00S 01°30' W 048°44'0 0.0
2017-Dec-08 10:30S 01°30' W 048°44'0 0.0
2017-Dec-08 10:00S 01°30' W 048°44'0 0.0
2017-Dec-08 09:30S 01°30' W 048°44'0 0.0
2017-Dec-08 08:57S 01°30' W 048°44'0 0.0
2017-Dec-08 08:30S 01°30' W 048°44'0 0.0
2017-Dec-08 08:00S 01°30' W 048°44'0 0.0
2017-Dec-08 07:30S 01°30' W 048°44'0 0.0
2017-Dec-08 06:57S 01°30' W 048°44'0 0.0
2017-Dec-08 06:30S 01°30' W 048°44'0 0.0
2017-Dec-08 06:00S 01°30' W 048°44'0 0.0
2017-Dec-08 05:27S 01°30' W 048°44'0 0.0
2017-Dec-08 05:00S 01°30' W 048°44'0 0.0
2017-Dec-08 04:30S 01°30' W 048°44'0 0.0
2017-Dec-08 04:00S 01°30' W 048°44'0 0.0
2017-Dec-08 03:18S 01°30' W 048°44'0 0.0
2017-Dec-08 02:54S 01°30' W 048°44'0 0.0
2017-Dec-08 02:30S 01°30' W 048°44'0 0.0
2017-Dec-08 02:00S 01°30' W 048°44'0 0.0
2017-Dec-08 01:30S 01°30' W 048°44'0 0.0
2017-Dec-08 01:00S 01°30' W 048°44'0 0.0
2017-Dec-08 00:30S 01°30' W 048°44'0 0.0
2017-Dec-08 00:00S 01°30' W 048°44'0 0.0
2017-Dec-07 23:30S 01°30' W 048°44'0 0.0
2017-Dec-07 22:48S 01°30' W 048°44'0 0.0
2017-Dec-07 22:18S 01°30' W 048°44'0 0.0
2017-Dec-07 21:57S 01°30' W 048°44'0 0.0
2017-Dec-07 21:30S 01°30' W 048°44'0 0.0
2017-Dec-07 20:54S 01°30' W 048°44'0 0.0
2017-Dec-07 20:27S 01°30' W 048°44'0 0.0
2017-Dec-07 20:00S 01°30' W 048°44'0 0.0
2017-Dec-07 19:27S 01°30' W 048°44'0 0.0
2017-Dec-07 19:00S 01°30' W 048°44'0 0.0
2017-Dec-07 18:30S 01°30' W 048°44'0 0.0
2017-Dec-07 18:00S 01°30' W 048°44'0 0.0
2017-Dec-07 17:30S 01°30' W 048°44'0 0.0
2017-Dec-07 17:00S 01°30' W 048°44'0 0.0
2017-Dec-07 16:30S 01°30' W 048°44'0 0.0
2017-Dec-07 16:00S 01°30' W 048°44'0 0.0
2017-Dec-07 15:30S 01°30' W 048°44'0 0.0
2017-Dec-07 15:00S 01°30' W 048°44'0 0.0
2017-Dec-07 14:30S 01°30' W 048°44'0 0.0
2017-Dec-07 14:00S 01°30' W 048°44'0 0.0
2017-Dec-07 13:30S 01°30' W 048°44'0 0.0
2017-Dec-07 13:00S 01°30' W 048°44'0 0.0
2017-Dec-07 12:18S 01°30' W 048°44'0 0.0
2017-Dec-07 12:00S 01°30' W 048°44'0 0.0
2017-Dec-07 11:30S 01°30' W 048°44'0 0.0
2017-Dec-07 10:57S 01°30' W 048°44'0 0.0
2017-Dec-07 10:30S 01°30' W 048°44'0 0.0
2017-Dec-07 10:00S 01°30' W 048°44'0 0.0
2017-Dec-07 09:30S 01°30' W 048°44'0 0.0
2017-Dec-07 09:00S 01°30' W 048°44'0 0.0
2017-Dec-07 08:30S 01°30' W 048°44'0 0.0
2017-Dec-07 08:00S 01°30' W 048°44'0 0.0
2017-Dec-07 07:24S 01°30' W 048°44'0 0.0
2017-Dec-07 07:00S 01°30' W 048°44'0 0.0
2017-Dec-07 06:30S 01°30' W 048°44'0 0.0
2017-Dec-07 06:00S 01°30' W 048°44'0 0.0
2017-Dec-07 05:30S 01°30' W 048°44'0 0.0
2017-Dec-07 05:00S 01°30' W 048°44'0 0.0
2017-Dec-07 04:27S 01°30' W 048°44'0 0.0
2017-Dec-07 04:00S 01°30' W 048°44'0 0.0
2017-Dec-07 03:30S 01°30' W 048°44'0 0.0
2017-Dec-07 03:00S 01°30' W 048°44'0 0.0
2017-Dec-07 02:30S 01°30' W 048°44'0 0.0
2017-Dec-07 02:00S 01°30' W 048°44'0 0.0
2017-Dec-07 01:30S 01°30' W 048°44'0 0.0
2017-Dec-07 01:00S 01°30' W 048°44'0 0.0
2017-Dec-07 00:30S 01°30' W 048°44'0 0.0
2017-Dec-07 00:00S 01°30' W 048°44'0 0.0
2017-Dec-06 23:30S 01°30' W 048°44'0 0.0
2017-Dec-06 23:00S 01°30' W 048°44'0 0.0
2017-Dec-06 22:30S 01°30' W 048°44'0 0.0
2017-Dec-06 22:00S 01°30' W 048°44'0 0.0
2017-Dec-06 21:30S 01°30' W 048°44'0 0.0
2017-Dec-06 21:00S 01°30' W 048°44'  
2017-Dec-04 10:24S 01°07' W 048°30'0 0.6
2017-Dec-04 10:00S 01°07' W 048°29'0 0.4
2017-Dec-04 09:27S 01°07' W 048°30'0 0.0
2017-Dec-04 09:00S 01°07' W 048°30'0 0.0
2017-Dec-04 08:30S 01°07' W 048°30'0 0.0
2017-Dec-04 07:57S 01°07' W 048°30'0 0.0
2017-Dec-04 07:30S 01°07' W 048°30'0 0.0
2017-Dec-04 07:00S 01°07' W 048°30'0 0.1
2017-Dec-04 06:30S 01°07' W 048°30'0 0.0
2017-Dec-04 06:00S 01°07' W 048°30'0 0.0
2017-Dec-04 05:30S 01°07' W 048°30'0 0.1
2017-Dec-04 05:00S 01°07' W 048°30'0 0.2
2017-Dec-04 04:27S 01°07' W 048°30'0 0.2
2017-Dec-04 04:00S 01°07' W 048°30'0 0.0
2017-Dec-04 03:30S 01°07' W 048°30'0 0.0
2017-Dec-04 03:00S 01°07' W 048°30'0 0.0
2017-Dec-04 02:30S 01°07' W 048°30'0 0.0
2017-Dec-04 02:00S 01°07' W 048°30'0 0.1
2017-Dec-04 01:30S 01°07' W 048°30'0 0.0
2017-Dec-04 01:00S 01°07' W 048°30'0 0.0
2017-Dec-04 00:27S 01°07' W 048°30'0 0.1
2017-Dec-04 00:00S 01°07' W 048°30'0 0.1
2017-Dec-03 23:30S 01°07' W 048°30'0 0.1
2017-Dec-03 23:00S 01°07' W 048°30'0 0.1
2017-Dec-03 22:30S 01°07' W 048°30'0 0.0
2017-Dec-03 22:00S 01°07' W 048°30'0 0.5
2017-Dec-03 21:30S 01°07' W 048°30'0 0.1
2017-Dec-03 21:00S 01°07' W 048°30'0 0.0
2017-Dec-03 20:30S 01°07' W 048°30'0 0.0
2017-Dec-03 20:00S 01°07' W 048°30'0 0.0
2017-Dec-03 19:24S 01°07' W 048°30'0 0.0
2017-Dec-03 19:00S 01°07' W 048°30'0 0.4
2017-Dec-03 18:30S 01°07' W 048°29'0 0.5
2017-Dec-03 18:00S 01°07' W 048°30'0 0.1
2017-Dec-03 17:27S 01°07' W 048°30'0 0.0
2017-Dec-03 17:00S 01°07' W 048°30'0 0.1
2017-Dec-03 16:30S 01°07' W 048°30'0 0.3
2017-Dec-03 16:00S 01°07' W 048°30'0 0.1
2017-Dec-03 15:30S 01°07' W 048°30'0 0.1
2017-Dec-03 15:00S 01°07' W 048°30'0 0.0
2017-Dec-03 14:30S 01°07' W 048°30'0 0.0
2017-Dec-03 14:00S 01°07' W 048°30'0 0.1
2017-Dec-03 13:30S 01°07' W 048°30'0 0.0
2017-Dec-03 13:00S 01°07' W 048°30'0 0.0
2017-Dec-03 12:30S 01°07' W 048°30'1 1.5
2017-Dec-03 12:00S 01°08' W 048°29'1 1.5
2017-Dec-03 11:30S 01°07' W 048°30'0 0.0
2017-Dec-03 10:57S 01°07' W 048°30'0 0.1
2017-Dec-03 10:30S 01°07' W 048°30'0 0.3
2017-Dec-03 09:57S 01°07' W 048°30'0 0.2
2017-Dec-03 09:30S 01°07' W 048°30'0 0.0
2017-Dec-03 09:00S 01°07' W 048°30'0 0.0
2017-Dec-03 08:30S 01°07' W 048°29'0 0.0
2017-Dec-03 08:00S 01°07' W 048°29'0 0.1
2017-Dec-03 07:30S 01°07' W 048°30'2 3.2
2017-Dec-03 07:01S 01°05' W 048°30'4 7.7
2017-Dec-03 06:30S 01°02' W 048°28'4 8.0
2017-Dec-03 06:00S 00°58' W 048°26'4 8.7
2017-Dec-03 05:30S 00°54' W 048°28'4 8.5
2017-Dec-03 05:00S 00°50' W 048°29'4 8.8
2017-Dec-03 04:30S 00°46' W 048°27'5 9.1
2017-Dec-03 03:57S 00°42' W 048°25'510.3
2017-Dec-03 03:30S 00°38' W 048°22'610.2
2017-Dec-03 02:58S 00°33' W 048°19'510.1
2017-Dec-03 02:30S 00°30' W 048°16'510.2
2017-Dec-03 02:00S 00°26' W 048°13'510.1
2017-Dec-03 01:30S 00°23' W 048°09'510.8
2017-Dec-03 01:00S 00°20' W 048°04'611.4
2017-Dec-03 00:30S 00°18' W 047°59'612.5
2017-Dec-03 00:00S 00°15' W 047°54'713.9
2017-Dec-02 23:30S 00°13' W 047°47'714.6
2017-Dec-02 23:00S 00°13' W 047°40'714.2
2017-Dec-02 22:31S 00°14' W 047°33'815.0
2017-Dec-02 22:00S 00°15' W 047°25'815.4
2017-Dec-02 21:30S 00°15' W 047°17'815.5
2017-Dec-02 21:00S 00°16' W 047°10'815.5
2017-Dec-02 20:29S 00°16' W 047°02'915.5
2017-Dec-02 19:56S 00°17' W 046°53'  
Track history (hours):
 
Tides and Currents Weather Stations Pressure Air Temp Water Temp Dewpoint Dewpoint Depression Visibility Wind Speed Wind Dir Waves Ship Positions

Virtuous Striker

Last reported at 2017-Dec-10 12:20 UTC. Time now 2017-Dec-13 22:34 UTC.
Position N 01°37' W 048°13'.

Length 190 m; draft 11.9 m.

Type: Cargo ship. MMSI: 311025100.

Date/timePositionNaut miles runAvg speedWind from/ knotsBaromVisibWave heightAir tempDewpointWater temp
2017-Dec-10 12:20N 01°37' W 048°13'613.6
2017-Dec-10 11:54N 01°33' W 048°10'513.6
2017-Dec-10 11:30N 01°28' W 048°07'713.6
2017-Dec-10 10:59N 01°22' W 048°03'1913.6
2017-Dec-10 09:34N 01°06' W 047°52'1713.3
2017-Dec-10 08:17N 00°49' W 047°52'5113.2
2017-Dec-10 04:27S 00°02' W 047°54'512.2
2017-Dec-10 04:00S 00°07' W 047°54'611.6
2017-Dec-10 03:30S 00°13' W 047°54'5 9.4
2017-Dec-10 03:00S 00°17' W 047°56'4 9.0
2017-Dec-10 02:30S 00°19' W 048°00'5 9.2
2017-Dec-10 02:00S 00°20' W 048°05'5 9.9
2017-Dec-10 01:27S 00°23' W 048°10'2711.9
2017-Dec-09 23:13S 00°44' W 048°26'313.2
2017-Dec-09 23:00S 00°46' W 048°27'612.5
2017-Dec-09 22:30S 00°52' W 048°29'611.4
2017-Dec-09 22:00S 00°57' W 048°26'612.1
2017-Dec-09 21:30S 01°03' W 048°29'31 1.1
2017-Dec-08 18:15S 01°30' W 048°44'0 0.0
2017-Dec-08 18:00S 01°30' W 048°44'0 0.0
2017-Dec-08 17:30S 01°30' W 048°44'0 0.0
2017-Dec-08 16:54S 01°30' W 048°44'0 0.0
2017-Dec-08 16:27S 01°30' W 048°44'0 0.0
2017-Dec-08 16:00S 01°30' W 048°44'0 0.0
2017-Dec-08 15:30S 01°30' W 048°44'0 0.0
2017-Dec-08 15:00S 01°30' W 048°44'0 0.0
2017-Dec-08 14:30S 01°30' W 048°44'0 0.0
2017-Dec-08 14:00S 01°30' W 048°44'0 0.0
2017-Dec-08 13:30S 01°30' W 048°44'0 0.0
2017-Dec-08 13:00S 01°30' W 048°44'0 0.0
2017-Dec-08 12:27S 01°30' W 048°44'0 0.0
2017-Dec-08 12:00S 01°30' W 048°44'0 0.0
2017-Dec-08 11:30S 01°30' W 048°44'0 0.0
2017-Dec-08 11:00S 01°30' W 048°44'0 0.0
2017-Dec-08 10:30S 01°30' W 048°44'0 0.0
2017-Dec-08 10:00S 01°30' W 048°44'0 0.0
2017-Dec-08 09:30S 01°30' W 048°44'0 0.0
2017-Dec-08 08:57S 01°30' W 048°44'0 0.0
2017-Dec-08 08:30S 01°30' W 048°44'0 0.0
2017-Dec-08 08:00S 01°30' W 048°44'0 0.0
2017-Dec-08 07:30S 01°30' W 048°44'0 0.0
2017-Dec-08 06:57S 01°30' W 048°44'0 0.0
2017-Dec-08 06:30S 01°30' W 048°44'0 0.0
2017-Dec-08 06:00S 01°30' W 048°44'0 0.0
2017-Dec-08 05:27S 01°30' W 048°44'0 0.0
2017-Dec-08 05:00S 01°30' W 048°44'0 0.0
2017-Dec-08 04:30S 01°30' W 048°44'0 0.0
2017-Dec-08 04:00S 01°30' W 048°44'0 0.0
2017-Dec-08 03:18S 01°30' W 048°44'0 0.0
2017-Dec-08 02:54S 01°30' W 048°44'0 0.0
2017-Dec-08 02:30S 01°30' W 048°44'0 0.0
2017-Dec-08 02:00S 01°30' W 048°44'0 0.0
2017-Dec-08 01:30S 01°30' W 048°44'0 0.0
2017-Dec-08 01:00S 01°30' W 048°44'0 0.0
2017-Dec-08 00:30S 01°30' W 048°44'0 0.0
2017-Dec-08 00:00S 01°30' W 048°44'0 0.0
2017-Dec-07 23:30S 01°30' W 048°44'0 0.0
2017-Dec-07 22:48S 01°30' W 048°44'0 0.0
2017-Dec-07 22:18S 01°30' W 048°44'0 0.0
2017-Dec-07 21:57S 01°30' W 048°44'0 0.0
2017-Dec-07 21:30S 01°30' W 048°44'0 0.0
2017-Dec-07 20:54S 01°30' W 048°44'0 0.0
2017-Dec-07 20:27S 01°30' W 048°44'0 0.0
2017-Dec-07 20:00S 01°30' W 048°44'0 0.0
2017-Dec-07 19:27S 01°30' W 048°44'0 0.0
2017-Dec-07 19:00S 01°30' W 048°44'0 0.0
2017-Dec-07 18:30S 01°30' W 048°44'0 0.0
2017-Dec-07 18:00S 01°30' W 048°44'0 0.0
2017-Dec-07 17:30S 01°30' W 048°44'0 0.0
2017-Dec-07 17:00S 01°30' W 048°44'0 0.0
2017-Dec-07 16:30S 01°30' W 048°44'0 0.0
2017-Dec-07 16:00S 01°30' W 048°44'0 0.0
2017-Dec-07 15:30S 01°30' W 048°44'0 0.0
2017-Dec-07 15:00S 01°30' W 048°44'0 0.0
2017-Dec-07 14:30S 01°30' W 048°44'0 0.0
2017-Dec-07 14:00S 01°30' W 048°44'0 0.0
2017-Dec-07 13:30S 01°30' W 048°44'0 0.0
2017-Dec-07 13:00S 01°30' W 048°44'0 0.0
2017-Dec-07 12:18S 01°30' W 048°44'0 0.0
2017-Dec-07 12:00S 01°30' W 048°44'0 0.0
2017-Dec-07 11:30S 01°30' W 048°44'0 0.0
2017-Dec-07 10:57S 01°30' W 048°44'0 0.0
2017-Dec-07 10:30S 01°30' W 048°44'0 0.0
2017-Dec-07 10:00S 01°30' W 048°44'0 0.0
2017-Dec-07 09:30S 01°30' W 048°44'0 0.0
2017-Dec-07 09:00S 01°30' W 048°44'0 0.0
2017-Dec-07 08:30S 01°30' W 048°44'0 0.0
2017-Dec-07 08:00S 01°30' W 048°44'0 0.0
2017-Dec-07 07:24S 01°30' W 048°44'0 0.0
2017-Dec-07 07:00S 01°30' W 048°44'0 0.0
2017-Dec-07 06:30S 01°30' W 048°44'0 0.0
2017-Dec-07 06:00S 01°30' W 048°44'0 0.0
2017-Dec-07 05:30S 01°30' W 048°44'0 0.0
2017-Dec-07 05:00S 01°30' W 048°44'0 0.0
2017-Dec-07 04:27S 01°30' W 048°44'0 0.0
2017-Dec-07 04:00S 01°30' W 048°44'0 0.0
2017-Dec-07 03:30S 01°30' W 048°44'0 0.0
2017-Dec-07 03:00S 01°30' W 048°44'0 0.0
2017-Dec-07 02:30S 01°30' W 048°44'0 0.0
2017-Dec-07 02:00S 01°30' W 048°44'0 0.0
2017-Dec-07 01:30S 01°30' W 048°44'0 0.0
2017-Dec-07 01:00S 01°30' W 048°44'0 0.0
2017-Dec-07 00:30S 01°30' W 048°44'0 0.0
2017-Dec-07 00:00S 01°30' W 048°44'0 0.0
2017-Dec-06 23:30S 01°30' W 048°44'0 0.0
2017-Dec-06 23:00S 01°30' W 048°44'0 0.0
2017-Dec-06 22:30S 01°30' W 048°44'0 0.0
2017-Dec-06 22:00S 01°30' W 048°44'0 0.0
2017-Dec-06 21:30S 01°30' W 048°44'0 0.0
2017-Dec-06 21:00S 01°30' W 048°44'  
2017-Dec-04 10:24S 01°07' W 048°30'0 0.6
2017-Dec-04 10:00S 01°07' W 048°29'0 0.4
2017-Dec-04 09:27S 01°07' W 048°30'0 0.0
2017-Dec-04 09:00S 01°07' W 048°30'0 0.0
2017-Dec-04 08:30S 01°07' W 048°30'0 0.0
2017-Dec-04 07:57S 01°07' W 048°30'0 0.0
2017-Dec-04 07:30S 01°07' W 048°30'0 0.0
2017-Dec-04 07:00S 01°07' W 048°30'0 0.1
2017-Dec-04 06:30S 01°07' W 048°30'0 0.0
2017-Dec-04 06:00S 01°07' W 048°30'0 0.0
2017-Dec-04 05:30S 01°07' W 048°30'0 0.1
2017-Dec-04 05:00S 01°07' W 048°30'0 0.2
2017-Dec-04 04:27S 01°07' W 048°30'0 0.2
2017-Dec-04 04:00S 01°07' W 048°30'0 0.0
2017-Dec-04 03:30S 01°07' W 048°30'0 0.0
2017-Dec-04 03:00S 01°07' W 048°30'0 0.0
2017-Dec-04 02:30S 01°07' W 048°30'0 0.0
2017-Dec-04 02:00S 01°07' W 048°30'0 0.1
2017-Dec-04 01:30S 01°07' W 048°30'0 0.0
2017-Dec-04 01:00S 01°07' W 048°30'0 0.0
2017-Dec-04 00:27S 01°07' W 048°30'0 0.1
2017-Dec-04 00:00S 01°07' W 048°30'0 0.1
2017-Dec-03 23:30S 01°07' W 048°30'0 0.1
2017-Dec-03 23:00S 01°07' W 048°30'0 0.1
2017-Dec-03 22:30S 01°07' W 048°30'0 0.0
2017-Dec-03 22:00S 01°07' W 048°30'0 0.5
2017-Dec-03 21:30S 01°07' W 048°30'0 0.1
2017-Dec-03 21:00S 01°07' W 048°30'0 0.0
2017-Dec-03 20:30S 01°07' W 048°30'0 0.0
2017-Dec-03 20:00S 01°07' W 048°30'0 0.0
2017-Dec-03 19:24S 01°07' W 048°30'0 0.0
2017-Dec-03 19:00S 01°07' W 048°30'0 0.4
2017-Dec-03 18:30S 01°07' W 048°29'0 0.5
2017-Dec-03 18:00S 01°07' W 048°30'0 0.1
2017-Dec-03 17:27S 01°07' W 048°30'0 0.0
2017-Dec-03 17:00S 01°07' W 048°30'0 0.1
2017-Dec-03 16:30S 01°07' W 048°30'0 0.3
2017-Dec-03 16:00S 01°07' W 048°30'0 0.1
2017-Dec-03 15:30S 01°07' W 048°30'0 0.1
2017-Dec-03 15:00S 01°07' W 048°30'0 0.0
2017-Dec-03 14:30S 01°07' W 048°30'0 0.0
2017-Dec-03 14:00S 01°07' W 048°30'0 0.1
2017-Dec-03 13:30S 01°07' W 048°30'0 0.0
2017-Dec-03 13:00S 01°07' W 048°30'0 0.0
2017-Dec-03 12:30S 01°07' W 048°30'1 1.5
2017-Dec-03 12:00S 01°08' W 048°29'1 1.5
2017-Dec-03 11:30S 01°07' W 048°30'0 0.0
2017-Dec-03 10:57S 01°07' W 048°30'0 0.1
2017-Dec-03 10:30S 01°07' W 048°30'0 0.3
2017-Dec-03 09:57S 01°07' W 048°30'0 0.2
2017-Dec-03 09:30S 01°07' W 048°30'0 0.0
2017-Dec-03 09:00S 01°07' W 048°30'0 0.0
2017-Dec-03 08:30S 01°07' W 048°29'0 0.0
2017-Dec-03 08:00S 01°07' W 048°29'0 0.1
2017-Dec-03 07:30S 01°07' W 048°30'2 3.2
2017-Dec-03 07:01S 01°05' W 048°30'4 7.7
2017-Dec-03 06:30S 01°02' W 048°28'4 8.0
2017-Dec-03 06:00S 00°58' W 048°26'4 8.7
2017-Dec-03 05:30S 00°54' W 048°28'4 8.5
2017-Dec-03 05:00S 00°50' W 048°29'4 8.8
2017-Dec-03 04:30S 00°46' W 048°27'5 9.1
2017-Dec-03 03:57S 00°42' W 048°25'510.3
2017-Dec-03 03:30S 00°38' W 048°22'610.2
2017-Dec-03 02:58S 00°33' W 048°19'510.1
2017-Dec-03 02:30S 00°30' W 048°16'510.2
2017-Dec-03 02:00S 00°26' W 048°13'510.1
2017-Dec-03 01:30S 00°23' W 048°09'510.8
2017-Dec-03 01:00S 00°20' W 048°04'611.4
2017-Dec-03 00:30S 00°18' W 047°59'612.5
2017-Dec-03 00:00S 00°15' W 047°54'713.9
2017-Dec-02 23:30S 00°13' W 047°47'714.6
2017-Dec-02 23:00S 00°13' W 047°40'714.2
2017-Dec-02 22:31S 00°14' W 047°33'815.0
2017-Dec-02 22:00S 00°15' W 047°25'815.4
2017-Dec-02 21:30S 00°15' W 047°17'815.5
2017-Dec-02 21:00S 00°16' W 047°10'815.5
2017-Dec-02 20:29S 00°16' W 047°02'915.5
2017-Dec-02 19:56S 00°17' W 046°53'  

Dump ship's entire track history